sensor_id;sensor_type;location;lat;lon;timestamp;pressure;altitude;pressure_sealevel;temperature;humidity
39729;BME280;25402;42.004;23.088;2022-07-29T00:02:21;97532.84;;;17.04;54.47
39729;BME280;25402;42.004;23.088;2022-07-29T00:04:47;97526.16;;;17.00;54.30
39729;BME280;25402;42.004;23.088;2022-07-29T00:07:14;97543.72;;;17.11;54.48
39729;BME280;25402;42.004;23.088;2022-07-29T00:09:40;97546.25;;;17.12;54.42
39729;BME280;25402;42.004;23.088;2022-07-29T00:12:07;97504.63;;;16.92;54.29
39729;BME280;25402;42.004;23.088;2022-07-29T00:14:34;97538.69;;;17.14;54.11
39729;BME280;25402;42.004;23.088;2022-07-29T00:17:01;97531.53;;;17.13;53.70
39729;BME280;25402;42.004;23.088;2022-07-29T00:19:27;97525.59;;;16.98;54.05
39729;BME280;25402;42.004;23.088;2022-07-29T00:21:54;97531.34;;;16.90;54.19
39729;BME280;25402;42.004;23.088;2022-07-29T00:24:20;97503.94;;;16.78;54.02
39729;BME280;25402;42.004;23.088;2022-07-29T00:26:47;97537.63;;;16.90;53.64
39729;BME280;25402;42.004;23.088;2022-07-29T00:29:13;97507.28;;;16.80;53.74
39729;BME280;25402;42.004;23.088;2022-07-29T00:31:40;97525.25;;;16.88;53.90
39729;BME280;25402;42.004;23.088;2022-07-29T00:34:07;97529.66;;;16.89;54.02
39729;BME280;25402;42.004;23.088;2022-07-29T00:36:53;97520.50;;;16.83;53.82
39729;BME280;25402;42.004;23.088;2022-07-29T00:39:19;97532.25;;;16.84;54.29
39729;BME280;25402;42.004;23.088;2022-07-29T00:41:46;97540.16;;;16.92;54.21
39729;BME280;25402;42.004;23.088;2022-07-29T00:44:12;97530.94;;;16.86;54.58
39729;BME280;25402;42.004;23.088;2022-07-29T00:46:39;97525.56;;;16.80;54.44
39729;BME280;25402;42.004;23.088;2022-07-29T00:49:06;97541.03;;;16.86;52.74
39729;BME280;25402;42.004;23.088;2022-07-29T00:51:34;97541.53;;;16.83;51.81
39729;BME280;25402;42.004;23.088;2022-07-29T00:54:01;97532.16;;;16.72;52.01
39729;BME280;25402;42.004;23.088;2022-07-29T00:56:30;97529.03;;;16.68;52.06
39729;BME280;25402;42.004;23.088;2022-07-29T00:58:56;97532.50;;;16.57;51.96
39729;BME280;25402;42.004;23.088;2022-07-29T01:01:23;97521.81;;;16.31;52.05
39729;BME280;25402;42.004;23.088;2022-07-29T01:03:50;97539.13;;;16.43;52.37
39729;BME280;25402;42.004;23.088;2022-07-29T01:06:18;97525.31;;;16.38;51.92
39729;BME280;25402;42.004;23.088;2022-07-29T01:08:45;97539.44;;;16.35;52.54
39729;BME280;25402;42.004;23.088;2022-07-29T01:11:13;97525.41;;;16.25;52.21
39729;BME280;25402;42.004;23.088;2022-07-29T01:13:41;97521.34;;;16.09;53.07
39729;BME280;25402;42.004;23.088;2022-07-29T01:16:12;97522.59;;;16.13;53.19
39729;BME280;25402;42.004;23.088;2022-07-29T01:18:42;97511.97;;;16.05;52.96
39729;BME280;25402;42.004;23.088;2022-07-29T01:21:43;97530.13;;;16.18;53.19
39729;BME280;25402;42.004;23.088;2022-07-29T01:24:37;97521.09;;;16.17;52.95
39729;BME280;25402;42.004;23.088;2022-07-29T01:27:19;97528.22;;;16.18;53.16
39729;BME280;25402;42.004;23.088;2022-07-29T01:29:59;97543.06;;;16.22;53.21
39729;BME280;25402;42.004;23.088;2022-07-29T01:32:29;97521.78;;;16.06;53.30
39729;BME280;25402;42.004;23.088;2022-07-29T01:35:00;97535.94;;;16.21;53.56
39729;BME280;25402;42.004;23.088;2022-07-29T01:37:31;97542.25;;;16.22;52.92
39729;BME280;25402;42.004;23.088;2022-07-29T01:40:00;97476.03;;;15.83;53.15
39729;BME280;25402;42.004;23.088;2022-07-29T01:42:31;97512.78;;;16.06;52.88
39729;BME280;25402;42.004;23.088;2022-07-29T01:45:06;97513.38;;;16.08;52.83
39729;BME280;25402;42.004;23.088;2022-07-29T01:47:40;97534.22;;;16.27;52.74
39729;BME280;25402;42.004;23.088;2022-07-29T01:50:11;97543.66;;;16.31;52.53
39729;BME280;25402;42.004;23.088;2022-07-29T01:52:46;97543.66;;;16.31;52.49
39729;BME280;25402;42.004;23.088;2022-07-29T01:55:15;97510.84;;;16.13;52.58
39729;BME280;25402;42.004;23.088;2022-07-29T01:57:45;97530.44;;;16.28;52.32
39729;BME280;25402;42.004;23.088;2022-07-29T02:00:16;97492.59;;;16.07;52.21
39729;BME280;25402;42.004;23.088;2022-07-29T02:02:44;97495.97;;;16.09;52.25
39729;BME280;25402;42.004;23.088;2022-07-29T02:05:15;97532.72;;;16.31;51.98
39729;BME280;25402;42.004;23.088;2022-07-29T02:07:43;97526.63;;;16.36;52.11
39729;BME280;25402;42.004;23.088;2022-07-29T02:10:11;97535.16;;;16.39;52.42
39729;BME280;25402;42.004;23.088;2022-07-29T02:12:39;97519.31;;;16.29;52.25
39729;BME280;25402;42.004;23.088;2022-07-29T02:15:09;97527.44;;;16.36;52.15
39729;BME280;25402;42.004;23.088;2022-07-29T02:17:41;97511.13;;;16.29;52.22
39729;BME280;25402;42.004;23.088;2022-07-29T02:20:09;97540.19;;;16.42;52.58
39729;BME280;25402;42.004;23.088;2022-07-29T02:22:38;97498.19;;;16.18;53.22
39729;BME280;25402;42.004;23.088;2022-07-29T02:25:07;97513.84;;;16.29;53.33
39729;BME280;25402;42.004;23.088;2022-07-29T02:27:35;97534.31;;;16.45;53.26
39729;BME280;25402;42.004;23.088;2022-07-29T02:30:04;97534.31;;;16.45;53.72
39729;BME280;25402;42.004;23.088;2022-07-29T02:32:32;97453.03;;;15.97;53.40
39729;BME280;25402;42.004;23.088;2022-07-29T02:35:03;97510.28;;;16.29;53.69
39729;BME280;25402;42.004;23.088;2022-07-29T02:37:32;97531.38;;;16.40;54.03
39729;BME280;25402;42.004;23.088;2022-07-29T02:39:59;97528.88;;;16.39;54.13
39729;BME280;25402;42.004;23.088;2022-07-29T02:42:27;97527.59;;;16.41;54.27
39729;BME280;25402;42.004;23.088;2022-07-29T02:44:54;97528.22;;;16.43;54.26
39729;BME280;25402;42.004;23.088;2022-07-29T02:47:23;97476.59;;;16.17;53.78
39729;BME280;25402;42.004;23.088;2022-07-29T02:49:55;97514.38;;;16.38;54.09
39729;BME280;25402;42.004;23.088;2022-07-29T02:52:26;97514.63;;;16.37;54.12
39729;BME280;25402;42.004;23.088;2022-07-29T02:54:56;97529.69;;;16.46;54.13
39729;BME280;25402;42.004;23.088;2022-07-29T02:57:31;97514.78;;;16.42;53.35
39729;BME280;25402;42.004;23.088;2022-07-29T03:00:01;97527.78;;;16.46;53.14
39729;BME280;25402;42.004;23.088;2022-07-29T03:02:33;97524.22;;;16.46;53.30
39729;BME280;25402;42.004;23.088;2022-07-29T03:05:01;97502.88;;;16.36;53.18
39729;BME280;25402;42.004;23.088;2022-07-29T03:07:33;97489.44;;;16.35;53.04
39729;BME280;25402;42.004;23.088;2022-07-29T03:10:02;97528.50;;;16.60;53.24
39729;BME280;25402;42.004;23.088;2022-07-29T03:12:30;97521.19;;;16.54;52.86
39729;BME280;25402;42.004;23.088;2022-07-29T03:14:57;97506.19;;;16.38;52.18
39729;BME280;25402;42.004;23.088;2022-07-29T03:17:25;97528.34;;;16.55;51.90
39729;BME280;25402;42.004;23.088;2022-07-29T03:19:52;97513.09;;;16.41;52.34
39729;BME280;25402;42.004;23.088;2022-07-29T03:22:19;97528.63;;;16.47;52.01
39729;BME280;25402;42.004;23.088;2022-07-29T03:24:46;97539.25;;;16.55;51.88
39729;BME280;25402;42.004;23.088;2022-07-29T03:27:13;97515.59;;;16.42;52.12
39729;BME280;25402;42.004;23.088;2022-07-29T03:29:39;97526.13;;;16.39;50.48
39729;BME280;25402;42.004;23.088;2022-07-29T03:32:06;97540.09;;;16.55;45.01
39729;BME280;25402;42.004;23.088;2022-07-29T03:34:32;97529.63;;;16.52;45.32
39729;BME280;25402;42.004;23.088;2022-07-29T03:36:59;97537.69;;;16.65;47.25
39729;BME280;25402;42.004;23.088;2022-07-29T03:39:30;97476.03;;;16.33;48.68
39729;BME280;25402;42.004;23.088;2022-07-29T03:41:59;97522.38;;;16.64;49.07
39729;BME280;25402;42.004;23.088;2022-07-29T03:44:27;97536.13;;;16.76;49.41
39729;BME280;25402;42.004;23.088;2022-07-29T03:46:55;97550.91;;;16.87;48.26
39729;BME280;25402;42.004;23.088;2022-07-29T03:49:26;97544.84;;;16.85;49.81
39729;BME280;25402;42.004;23.088;2022-07-29T03:51:54;97536.94;;;16.77;49.98
39729;BME280;25402;42.004;23.088;2022-07-29T03:54:20;97542.72;;;16.87;49.45
39729;BME280;25402;42.004;23.088;2022-07-29T03:56:48;97549.84;;;16.88;48.39
39729;BME280;25402;42.004;23.088;2022-07-29T03:59:17;97554.88;;;16.91;49.40
39729;BME280;25402;42.004;23.088;2022-07-29T04:01:45;97548.50;;;16.97;49.26
39729;BME280;25402;42.004;23.088;2022-07-29T04:04:12;97558.06;;;17.06;48.48
39729;BME280;25402;42.004;23.088;2022-07-29T04:06:40;97531.63;;;17.00;47.90
39729;BME280;25402;42.004;23.088;2022-07-29T04:09:06;97554.16;;;17.20;47.81
39729;BME280;25402;42.004;23.088;2022-07-29T04:11:33;97547.84;;;17.20;48.31
39729;BME280;25402;42.004;23.088;2022-07-29T04:14:00;97556.81;;;17.27;47.98
39729;BME280;25402;42.004;23.088;2022-07-29T04:16:27;97537.28;;;17.23;47.95
39729;BME280;25402;42.004;23.088;2022-07-29T04:18:53;97514.09;;;17.08;48.82
39729;BME280;25402;42.004;23.088;2022-07-29T04:21:20;97549.50;;;17.39;48.22
39729;BME280;25402;42.004;23.088;2022-07-29T04:23:46;97549.56;;;17.51;47.21
39729;BME280;25402;42.004;23.088;2022-07-29T04:26:15;97542.41;;;17.50;46.65
39729;BME280;25402;42.004;23.088;2022-07-29T04:28:42;97548.69;;;17.68;46.41
39729;BME280;25402;42.004;23.088;2022-07-29T04:31:08;97553.00;;;17.76;45.97
39729;BME280;25402;42.004;23.088;2022-07-29T04:33:35;97554.00;;;17.82;46.47
39729;BME280;25402;42.004;23.088;2022-07-29T04:36:01;97556.19;;;17.91;45.18
39729;BME280;25402;42.004;23.088;2022-07-29T04:38:28;97564.50;;;17.96;44.71
39729;BME280;25402;42.004;23.088;2022-07-29T04:40:54;97561.47;;;18.04;44.61
39729;BME280;25402;42.004;23.088;2022-07-29T04:43:21;97572.06;;;18.13;43.85
39729;BME280;25402;42.004;23.088;2022-07-29T04:45:47;97570.06;;;18.20;44.30
39729;BME280;25402;42.004;23.088;2022-07-29T04:48:13;97549.00;;;18.20;44.92
39729;BME280;25402;42.004;23.088;2022-07-29T04:50:41;97559.72;;;18.33;45.45
39729;BME280;25402;42.004;23.088;2022-07-29T04:53:08;97513.72;;;18.12;45.50
39729;BME280;25402;42.004;23.088;2022-07-29T04:55:34;97563.72;;;18.49;45.97
39729;BME280;25402;42.004;23.088;2022-07-29T04:58:02;97568.88;;;18.57;45.99
39729;BME280;25402;42.004;23.088;2022-07-29T05:00:28;97553.97;;;18.53;46.21
39729;BME280;25402;42.004;23.088;2022-07-29T05:02:54;97559.06;;;18.61;46.83
39729;BME280;25402;42.004;23.088;2022-07-29T05:05:21;97568.72;;;18.75;46.10
39729;BME280;25402;42.004;23.088;2022-07-29T05:07:48;97570.16;;;18.90;45.76
39729;BME280;25402;42.004;23.088;2022-07-29T05:10:14;97569.22;;;18.96;43.84
39729;BME280;25402;42.004;23.088;2022-07-29T05:12:41;97567.16;;;19.26;43.73
39729;BME280;25402;42.004;23.088;2022-07-29T05:15:10;97554.13;;;19.85;42.33
39729;BME280;25402;42.004;23.088;2022-07-29T05:17:36;97570.63;;;20.47;41.12
39729;BME280;25402;42.004;23.088;2022-07-29T05:20:03;97565.94;;;21.14;39.94
39729;BME280;25402;42.004;23.088;2022-07-29T05:22:29;97569.44;;;21.48;38.12
39729;BME280;25402;42.004;23.088;2022-07-29T05:24:56;97566.31;;;21.89;40.60
39729;BME280;25402;42.004;23.088;2022-07-29T05:27:23;97572.34;;;22.34;40.24
39729;BME280;25402;42.004;23.088;2022-07-29T05:29:49;97574.88;;;22.41;39.74
39729;BME280;25402;42.004;23.088;2022-07-29T05:32:16;97563.41;;;22.86;39.59
39729;BME280;25402;42.004;23.088;2022-07-29T05:34:42;97554.53;;;23.16;38.79
39729;BME280;25402;42.004;23.088;2022-07-29T05:37:09;97574.88;;;23.57;38.49
39729;BME280;25402;42.004;23.088;2022-07-29T05:39:36;97555.94;;;23.81;37.47
39729;BME280;25402;42.004;23.088;2022-07-29T05:42:08;97575.97;;;24.44;37.23
39729;BME280;25402;42.004;23.088;2022-07-29T05:44:36;97572.97;;;24.55;36.77
39729;BME280;25402;42.004;23.088;2022-07-29T05:47:02;97580.72;;;24.53;36.98
39729;BME280;25402;42.004;23.088;2022-07-29T05:49:29;97580.69;;;24.38;36.93
39729;BME280;25402;42.004;23.088;2022-07-29T05:51:57;97579.28;;;24.31;36.84
39729;BME280;25402;42.004;23.088;2022-07-29T05:54:23;97583.03;;;23.84;37.74
39729;BME280;25402;42.004;23.088;2022-07-29T05:56:50;97592.72;;;23.97;37.83
39729;BME280;25402;42.004;23.088;2022-07-29T05:59:17;97591.34;;;23.94;37.31
39729;BME280;25402;42.004;23.088;2022-07-29T06:01:43;97583.41;;;24.18;37.38
39729;BME280;25402;42.004;23.088;2022-07-29T06:04:10;97580.97;;;24.37;36.84
39729;BME280;25402;42.004;23.088;2022-07-29T06:06:36;97545.31;;;24.55;36.81
39729;BME280;25402;42.004;23.088;2022-07-29T06:09:03;97563.28;;;24.78;36.42
39729;BME280;25402;42.004;23.088;2022-07-29T06:11:29;97590.63;;;25.20;35.94
39729;BME280;25402;42.004;23.088;2022-07-29T06:13:56;97516.97;;;25.19;35.50
39729;BME280;25402;42.004;23.088;2022-07-29T06:16:23;97563.69;;;25.61;34.88
39729;BME280;25402;42.004;23.088;2022-07-29T06:18:50;97574.06;;;25.95;34.51
39729;BME280;25402;42.004;23.088;2022-07-29T06:21:17;97586.34;;;26.33;33.86
39729;BME280;25402;42.004;23.088;2022-07-29T06:23:44;97588.97;;;26.53;33.54
39729;BME280;25402;42.004;23.088;2022-07-29T06:26:11;97591.34;;;26.70;33.46
39729;BME280;25402;42.004;23.088;2022-07-29T06:28:38;97589.94;;;26.73;33.34
39729;BME280;25402;42.004;23.088;2022-07-29T06:31:05;97582.03;;;26.51;33.30
39729;BME280;25402;42.004;23.088;2022-07-29T06:33:32;97571.22;;;26.10;33.58
39729;BME280;25402;42.004;23.088;2022-07-29T06:35:59;97588.41;;;26.07;33.76
39729;BME280;25402;42.004;23.088;2022-07-29T06:38:25;97584.44;;;26.23;34.30
39729;BME280;25402;42.004;23.088;2022-07-29T06:40:52;97590.25;;;26.66;32.49
39729;BME280;25402;42.004;23.088;2022-07-29T06:43:29;97576.56;;;26.80;32.73
39729;BME280;25402;42.004;23.088;2022-07-29T06:45:59;97561.31;;;26.77;32.55
39729;BME280;25402;42.004;23.088;2022-07-29T06:48:25;97575.19;;;26.77;32.80
39729;BME280;25402;42.004;23.088;2022-07-29T06:50:52;97566.50;;;26.50;32.60
39729;BME280;25402;42.004;23.088;2022-07-29T06:53:19;97563.97;;;26.14;33.51
39729;BME280;25402;42.004;23.088;2022-07-29T06:55:46;97562.47;;;25.83;33.55
39729;BME280;25402;42.004;23.088;2022-07-29T06:58:15;97576.88;;;25.85;33.89
39729;BME280;25402;42.004;23.088;2022-07-29T07:00:43;97577.63;;;26.01;33.31
39729;BME280;25402;42.004;23.088;2022-07-29T07:03:11;97577.31;;;26.12;33.16
39729;BME280;25402;42.004;23.088;2022-07-29T07:05:37;97571.41;;;26.24;32.72
39729;BME280;25402;42.004;23.088;2022-07-29T07:08:05;97569.81;;;26.57;32.32
39729;BME280;25402;42.004;23.088;2022-07-29T07:10:32;97553.63;;;26.64;31.46
39729;BME280;25402;42.004;23.088;2022-07-29T07:12:59;97577.44;;;26.75;31.90
39729;BME280;25402;42.004;23.088;2022-07-29T07:15:26;97509.56;;;26.28;32.00
39729;BME280;25402;42.004;23.088;2022-07-29T07:17:53;97550.22;;;26.77;31.93
39729;BME280;25402;42.004;23.088;2022-07-29T07:20:21;97565.38;;;27.19;31.62
39729;BME280;25402;42.004;23.088;2022-07-29T07:22:47;97567.50;;;27.27;31.55
39729;BME280;25402;42.004;23.088;2022-07-29T07:25:15;97563.75;;;27.42;31.23
39729;BME280;25402;42.004;23.088;2022-07-29T07:27:43;97556.03;;;27.57;31.01
39729;BME280;25402;42.004;23.088;2022-07-29T07:30:10;97556.72;;;27.49;31.41
39729;BME280;25402;42.004;23.088;2022-07-29T07:32:37;97566.97;;;27.72;31.51
39729;BME280;25402;42.004;23.088;2022-07-29T07:35:04;97556.94;;;27.77;31.00
39729;BME280;25402;42.004;23.088;2022-07-29T07:37:32;97548.97;;;27.70;30.81
39729;BME280;25402;42.004;23.088;2022-07-29T07:39:59;97532.41;;;27.60;30.74
39729;BME280;25402;42.004;23.088;2022-07-29T07:42:26;97528.25;;;27.57;31.21
39729;BME280;25402;42.004;23.088;2022-07-29T07:44:53;97505.28;;;27.70;30.91
39729;BME280;25402;42.004;23.088;2022-07-29T07:47:19;97517.22;;;27.76;30.59
39729;BME280;25402;42.004;23.088;2022-07-29T07:49:46;97530.84;;;27.72;30.96
39729;BME280;25402;42.004;23.088;2022-07-29T07:52:13;97523.00;;;27.56;30.71
39729;BME280;25402;42.004;23.088;2022-07-29T07:54:41;97525.69;;;27.42;30.85
39729;BME280;25402;42.004;23.088;2022-07-29T07:57:08;97521.06;;;27.56;31.61
39729;BME280;25402;42.004;23.088;2022-07-29T07:59:36;97457.00;;;27.24;31.07
39729;BME280;25402;42.004;23.088;2022-07-29T08:02:03;97513.38;;;27.48;31.48
39729;BME280;25402;42.004;23.088;2022-07-29T08:04:30;97517.25;;;27.71;31.54
39729;BME280;25402;42.004;23.088;2022-07-29T08:06:57;97525.56;;;27.76;31.79
39729;BME280;25402;42.004;23.088;2022-07-29T08:09:26;97528.41;;;27.90;31.15
39729;BME280;25402;42.004;23.088;2022-07-29T08:11:54;97515.78;;;27.79;30.48
39729;BME280;25402;42.004;23.088;2022-07-29T08:14:21;97506.47;;;27.88;30.92
39729;BME280;25402;42.004;23.088;2022-07-29T08:16:50;97496.34;;;27.79;30.51
39729;BME280;25402;42.004;23.088;2022-07-29T08:19:17;97520.53;;;27.97;30.59
39729;BME280;25402;42.004;23.088;2022-07-29T08:21:46;97515.94;;;28.06;31.16
39729;BME280;25402;42.004;23.088;2022-07-29T08:24:13;97515.66;;;28.26;30.62
39729;BME280;25402;42.004;23.088;2022-07-29T08:26:57;97500.72;;;28.22;30.45
39729;BME280;25402;42.004;23.088;2022-07-29T08:29:24;97502.38;;;28.23;30.53
39729;BME280;25402;42.004;23.088;2022-07-29T08:31:52;97491.03;;;28.01;30.10
39729;BME280;25402;42.004;23.088;2022-07-29T08:34:19;97499.72;;;27.76;30.59
39729;BME280;25402;42.004;23.088;2022-07-29T08:36:46;97504.69;;;27.79;30.69
39729;BME280;25402;42.004;23.088;2022-07-29T08:39:13;97501.22;;;27.87;30.74
39729;BME280;25402;42.004;23.088;2022-07-29T08:41:39;97482.97;;;27.99;30.79
39729;BME280;25402;42.004;23.088;2022-07-29T08:44:06;97446.31;;;27.97;29.88
39729;BME280;25402;42.004;23.088;2022-07-29T08:46:33;97473.16;;;28.39;29.73
39729;BME280;25402;42.004;23.088;2022-07-29T08:49:02;97495.25;;;28.50;29.82
39729;BME280;25402;42.004;23.088;2022-07-29T08:51:34;97494.03;;;28.56;30.12
39729;BME280;25402;42.004;23.088;2022-07-29T08:54:04;97426.59;;;28.31;29.85
39729;BME280;25402;42.004;23.088;2022-07-29T08:56:32;97445.28;;;28.58;29.16
39729;BME280;25402;42.004;23.088;2022-07-29T08:59:02;97483.41;;;28.90;29.15
39729;BME280;25402;42.004;23.088;2022-07-29T09:01:33;97476.50;;;29.01;29.09
39729;BME280;25402;42.004;23.088;2022-07-29T09:04:03;97456.94;;;29.06;28.00
39729;BME280;25402;42.004;23.088;2022-07-29T09:06:32;97435.16;;;29.08;28.44
39729;BME280;25402;42.004;23.088;2022-07-29T09:09:01;97472.72;;;29.52;28.64
39729;BME280;25402;42.004;23.088;2022-07-29T09:11:28;97470.38;;;29.59;28.12
39729;BME280;25402;42.004;23.088;2022-07-29T09:13:55;97464.47;;;29.74;28.19
39729;BME280;25402;42.004;23.088;2022-07-29T09:16:22;97439.38;;;29.74;28.15
39729;BME280;25402;42.004;23.088;2022-07-29T09:18:48;97419.50;;;29.76;28.04
39729;BME280;25402;42.004;23.088;2022-07-29T09:21:16;97437.69;;;30.09;28.21
39729;BME280;25402;42.004;23.088;2022-07-29T09:24:06;97440.94;;;30.25;27.53
39729;BME280;25402;42.004;23.088;2022-07-29T09:26:34;97443.28;;;30.32;27.97
39729;BME280;25402;42.004;23.088;2022-07-29T09:29:08;97433.00;;;30.41;27.38
39729;BME280;25402;42.004;23.088;2022-07-29T09:31:36;97444.47;;;30.39;26.98
39729;BME280;25402;42.004;23.088;2022-07-29T09:34:04;97428.53;;;30.54;27.04
39729;BME280;25402;42.004;23.088;2022-07-29T09:36:39;97446.78;;;30.60;27.25
39729;BME280;25402;42.004;23.088;2022-07-29T09:39:05;97422.03;;;30.67;27.08
39729;BME280;25402;42.004;23.088;2022-07-29T09:41:47;97397.22;;;30.65;26.49
39729;BME280;25402;42.004;23.088;2022-07-29T09:44:16;97429.59;;;30.97;26.61
39729;BME280;25402;42.004;23.088;2022-07-29T09:47:01;97378.00;;;30.64;26.38
39729;BME280;25402;42.004;23.088;2022-07-29T09:49:32;97415.13;;;30.95;26.58
39729;BME280;25402;42.004;23.088;2022-07-29T09:52:04;97410.41;;;31.13;26.88
39729;BME280;25402;42.004;23.088;2022-07-29T09:54:39;97385.94;;;31.19;26.86
39729;BME280;25402;42.004;23.088;2022-07-29T09:57:07;97381.53;;;31.35;26.19
39729;BME280;25402;42.004;23.088;2022-07-29T09:59:35;97410.69;;;31.68;25.51
39729;BME280;25402;42.004;23.088;2022-07-29T10:02:01;97387.50;;;31.68;25.85
39729;BME280;25402;42.004;23.088;2022-07-29T10:04:38;97401.84;;;31.84;25.97
39729;BME280;25402;42.004;23.088;2022-07-29T10:07:05;97403.19;;;31.95;25.56
39729;BME280;25402;42.004;23.088;2022-07-29T10:09:33;97393.28;;;32.06;25.36
39729;BME280;25402;42.004;23.088;2022-07-29T10:12:04;97384.59;;;32.25;25.30
39729;BME280;25402;42.004;23.088;2022-07-29T10:14:31;97387.66;;;32.40;25.18
39729;BME280;25402;42.004;23.088;2022-07-29T10:16:59;97384.47;;;32.59;25.31
39729;BME280;25402;42.004;23.088;2022-07-29T10:19:26;97372.13;;;32.69;24.84
39729;BME280;25402;42.004;23.088;2022-07-29T10:21:54;97347.41;;;32.71;24.69
39729;BME280;25402;42.004;23.088;2022-07-29T10:24:21;97378.22;;;33.00;24.17
39729;BME280;25402;42.004;23.088;2022-07-29T10:26:48;97367.50;;;33.11;23.72
39729;BME280;25402;42.004;23.088;2022-07-29T10:29:15;97370.53;;;33.27;23.73
39729;BME280;25402;42.004;23.088;2022-07-29T10:31:48;97355.50;;;33.31;23.99
39729;BME280;25402;42.004;23.088;2022-07-29T10:34:23;97352.75;;;33.43;23.51
39729;BME280;25402;42.004;23.088;2022-07-29T10:37:06;97353.47;;;33.61;23.69
39729;BME280;25402;42.004;23.088;2022-07-29T10:39:45;97334.00;;;33.65;23.00
39729;BME280;25402;42.004;23.088;2022-07-29T10:42:18;97336.94;;;33.68;22.56
39729;BME280;25402;42.004;23.088;2022-07-29T10:44:46;97344.72;;;33.83;22.48
39729;BME280;25402;42.004;23.088;2022-07-29T10:47:23;97337.69;;;33.98;22.26
39729;BME280;25402;42.004;23.088;2022-07-29T10:49:57;97344.03;;;34.19;22.57
39729;BME280;25402;42.004;23.088;2022-07-29T10:52:24;97324.19;;;34.25;22.97
39729;BME280;25402;42.004;23.088;2022-07-29T10:54:54;97300.66;;;34.17;22.50
39729;BME280;25402;42.004;23.088;2022-07-29T10:57:25;97327.03;;;34.37;22.59
39729;BME280;25402;42.004;23.088;2022-07-29T11:00:26;97313.59;;;34.42;22.48
39729;BME280;25402;42.004;23.088;2022-07-29T11:02:53;97311.63;;;34.55;22.41
39729;BME280;25402;42.004;23.088;2022-07-29T11:05:22;97298.66;;;34.63;22.57
39729;BME280;25402;42.004;23.088;2022-07-29T11:08:23;97312.94;;;34.82;21.66
39729;BME280;25402;42.004;23.088;2022-07-29T11:10:53;97301.94;;;34.89;21.52
39729;BME280;25402;42.004;23.088;2022-07-29T11:13:50;97305.78;;;34.97;21.93
39729;BME280;25402;42.004;23.088;2022-07-29T11:16:18;97301.72;;;34.94;21.42
39729;BME280;25402;42.004;23.088;2022-07-29T11:19:21;97302.41;;;35.03;21.02
39729;BME280;25402;42.004;23.088;2022-07-29T11:21:48;97292.34;;;35.14;20.68
39729;BME280;25402;42.004;23.088;2022-07-29T11:24:17;97283.91;;;35.14;20.82
39729;BME280;25402;42.004;23.088;2022-07-29T11:26:45;97281.53;;;35.29;20.29
39729;BME280;25402;42.004;23.088;2022-07-29T11:29:19;97280.22;;;35.38;20.66
39729;BME280;25402;42.004;23.088;2022-07-29T11:31:48;97269.31;;;35.49;20.32
39729;BME280;25402;42.004;23.088;2022-07-29T11:34:25;97268.63;;;35.40;20.31
39729;BME280;25402;42.004;23.088;2022-07-29T11:37:14;97262.97;;;35.52;20.72
39729;BME280;25402;42.004;23.088;2022-07-29T11:39:42;97262.75;;;35.57;20.95
39729;BME280;25402;42.004;23.088;2022-07-29T11:42:38;97261.69;;;35.77;20.61
39729;BME280;25402;42.004;23.088;2022-07-29T11:45:08;97250.28;;;35.86;20.39
39729;BME280;25402;42.004;23.088;2022-07-29T11:47:37;97242.66;;;35.86;19.41
39729;BME280;25402;42.004;23.088;2022-07-29T11:50:06;97252.44;;;36.05;19.07
39729;BME280;25402;42.004;23.088;2022-07-29T11:52:33;97242.53;;;36.11;19.16
39729;BME280;25402;42.004;23.088;2022-07-29T11:55:04;97233.72;;;36.12;19.20
39729;BME280;25402;42.004;23.088;2022-07-29T11:57:31;97241.19;;;36.20;18.69
39729;BME280;25402;42.004;23.088;2022-07-29T12:00:01;97245.03;;;36.28;18.73
39729;BME280;25402;42.004;23.088;2022-07-29T12:02:38;97227.56;;;36.38;18.76
39729;BME280;25402;42.004;23.088;2022-07-29T12:05:06;97227.22;;;36.40;18.39
39729;BME280;25402;42.004;23.088;2022-07-29T12:07:34;97235.97;;;36.35;18.12
39729;BME280;25402;42.004;23.088;2022-07-29T12:10:01;97238.84;;;36.38;18.53
39729;BME280;25402;42.004;23.088;2022-07-29T12:12:28;97227.03;;;36.48;18.54
39729;BME280;25402;42.004;23.088;2022-07-29T12:14:55;97206.88;;;36.46;18.07
39729;BME280;25402;42.004;23.088;2022-07-29T12:17:26;97228.38;;;36.70;17.27
39729;BME280;25402;42.004;23.088;2022-07-29T12:19:53;97229.28;;;36.74;17.91
39729;BME280;25402;42.004;23.088;2022-07-29T12:22:25;97226.34;;;36.86;17.75
39729;BME280;25402;42.004;23.088;2022-07-29T12:24:52;97219.78;;;36.98;17.98
39729;BME280;25402;42.004;23.088;2022-07-29T12:27:18;97222.34;;;37.03;18.14
39729;BME280;25402;42.004;23.088;2022-07-29T12:29:54;97226.22;;;37.14;17.82
39729;BME280;25402;42.004;23.088;2022-07-29T12:32:20;97223.91;;;37.20;17.38
39729;BME280;25402;42.004;23.088;2022-07-29T12:34:48;97213.16;;;37.25;17.27
39729;BME280;25402;42.004;23.088;2022-07-29T12:37:15;97217.75;;;37.34;17.29
39729;BME280;25402;42.004;23.088;2022-07-29T12:39:42;97212.50;;;37.32;16.70
39729;BME280;25402;42.004;23.088;2022-07-29T12:42:12;97207.16;;;37.27;16.74
39729;BME280;25402;42.004;23.088;2022-07-29T12:44:46;97200.84;;;37.34;16.45
39729;BME280;25402;42.004;23.088;2022-07-29T12:47:12;97198.91;;;37.38;16.73
39729;BME280;25402;42.004;23.088;2022-07-29T12:49:39;97200.28;;;37.44;16.88
39729;BME280;25402;42.004;23.088;2022-07-29T12:52:24;97197.97;;;36.95;16.24
39729;BME280;25402;42.004;23.088;2022-07-29T12:54:51;97191.06;;;36.42;17.08
39729;BME280;25402;42.004;23.088;2022-07-29T12:57:17;97201.38;;;36.22;17.05
39729;BME280;25402;42.004;23.088;2022-07-29T12:59:43;97193.91;;;35.82;17.23
39729;BME280;25402;42.004;23.088;2022-07-29T13:02:20;97191.25;;;36.02;17.28